sensor_id;sensor_type;location;lat;lon;timestamp;temperature;humidity
66086;DHT22;52868;49.758;9.586;2022-08-19T00:01:38;24.20;62.90
66086;DHT22;52868;49.758;9.586;2022-08-19T00:04:07;24.20;62.90
66086;DHT22;52868;49.758;9.586;2022-08-19T00:06:35;24.20;62.90
66086;DHT22;52868;49.758;9.586;2022-08-19T00:09:02;24.20;63.00
66086;DHT22;52868;49.758;9.586;2022-08-19T00:11:27;24.10;63.00
66086;DHT22;52868;49.758;9.586;2022-08-19T00:13:55;24.10;63.00
66086;DHT22;52868;49.758;9.586;2022-08-19T00:16:22;24.10;63.00
66086;DHT22;52868;49.758;9.586;2022-08-19T00:18:48;24.20;63.00
66086;DHT22;52868;49.758;9.586;2022-08-19T00:21:14;24.10;63.00
66086;DHT22;52868;49.758;9.586;2022-08-19T00:23:41;24.10;63.00
66086;DHT22;52868;49.758;9.586;2022-08-19T00:26:09;24.10;63.00
66086;DHT22;52868;49.758;9.586;2022-08-19T00:28:34;24.10;63.00
66086;DHT22;52868;49.758;9.586;2022-08-19T00:31:04;24.20;63.00
66086;DHT22;52868;49.758;9.586;2022-08-19T00:33:31;24.20;63.10
66086;DHT22;52868;49.758;9.586;2022-08-19T00:35:58;24.10;63.20
66086;DHT22;52868;49.758;9.586;2022-08-19T00:38:24;24.10;63.20
66086;DHT22;52868;49.758;9.586;2022-08-19T00:40:50;24.10;63.10
66086;DHT22;52868;49.758;9.586;2022-08-19T00:43:19;24.10;63.10
66086;DHT22;52868;49.758;9.586;2022-08-19T00:45:46;24.10;63.20
66086;DHT22;52868;49.758;9.586;2022-08-19T00:48:13;24.10;63.20
66086;DHT22;52868;49.758;9.586;2022-08-19T00:50:39;24.10;63.10
66086;DHT22;52868;49.758;9.586;2022-08-19T00:53:06;24.10;63.20
66086;DHT22;52868;49.758;9.586;2022-08-19T00:55:32;24.10;63.20
66086;DHT22;52868;49.758;9.586;2022-08-19T00:58:02;24.10;63.20
66086;DHT22;52868;49.758;9.586;2022-08-19T01:00:29;24.10;63.20
66086;DHT22;52868;49.758;9.586;2022-08-19T01:02:55;24.10;63.10
66086;DHT22;52868;49.758;9.586;2022-08-19T01:05:24;24.10;63.10
66086;DHT22;52868;49.758;9.586;2022-08-19T01:07:53;24.10;63.10
66086;DHT22;52868;49.758;9.586;2022-08-19T01:10:23;24.10;63.10
66086;DHT22;52868;49.758;9.586;2022-08-19T01:12:50;24.10;63.20
66086;DHT22;52868;49.758;9.586;2022-08-19T01:15:20;24.00;63.30
66086;DHT22;52868;49.758;9.586;2022-08-19T01:17:47;24.00;63.30
66086;DHT22;52868;49.758;9.586;2022-08-19T01:20:17;24.00;63.30
66086;DHT22;52868;49.758;9.586;2022-08-19T01:22:44;24.00;63.30
66086;DHT22;52868;49.758;9.586;2022-08-19T01:25:16;23.90;63.50
66086;DHT22;52868;49.758;9.586;2022-08-19T01:27:45;23.90;63.40
66086;DHT22;52868;49.758;9.586;2022-08-19T01:30:15;23.90;63.40
66086;DHT22;52868;49.758;9.586;2022-08-19T01:32:41;23.90;63.50
66086;DHT22;52868;49.758;9.586;2022-08-19T01:35:09;23.90;63.50
66086;DHT22;52868;49.758;9.586;2022-08-19T01:37:47;23.90;63.50
66086;DHT22;52868;49.758;9.586;2022-08-19T01:40:13;23.90;63.50
66086;DHT22;52868;49.758;9.586;2022-08-19T01:42:39;23.80;63.50
66086;DHT22;52868;49.758;9.586;2022-08-19T01:45:05;23.80;63.60
66086;DHT22;52868;49.758;9.586;2022-08-19T01:47:34;23.80;63.60
66086;DHT22;52868;49.758;9.586;2022-08-19T01:50:00;23.80;63.60
66086;DHT22;52868;49.758;9.586;2022-08-19T01:52:27;23.80;63.60
66086;DHT22;52868;49.758;9.586;2022-08-19T01:54:53;23.80;63.60
66086;DHT22;52868;49.758;9.586;2022-08-19T01:57:18;23.80;63.60
66086;DHT22;52868;49.758;9.586;2022-08-19T01:59:45;23.80;63.60
66086;DHT22;52868;49.758;9.586;2022-08-19T02:02:10;23.80;63.70
66086;DHT22;52868;49.758;9.586;2022-08-19T02:04:37;23.80;63.70
66086;DHT22;52868;49.758;9.586;2022-08-19T02:07:07;23.80;63.70
66086;DHT22;52868;49.758;9.586;2022-08-19T02:09:34;23.80;63.80
66086;DHT22;52868;49.758;9.586;2022-08-19T02:12:00;23.80;63.70
66086;DHT22;52868;49.758;9.586;2022-08-19T02:14:25;23.80;63.70
66086;DHT22;52868;49.758;9.586;2022-08-19T02:16:51;23.80;63.70
66086;DHT22;52868;49.758;9.586;2022-08-19T02:19:17;23.80;63.80
66086;DHT22;52868;49.758;9.586;2022-08-19T02:21:43;23.80;63.90
66086;DHT22;52868;49.758;9.586;2022-08-19T02:24:09;23.80;63.90
66086;DHT22;52868;49.758;9.586;2022-08-19T02:26:35;23.80;63.90
66086;DHT22;52868;49.758;9.586;2022-08-19T02:29:00;23.70;63.90
66086;DHT22;52868;49.758;9.586;2022-08-19T02:31:26;23.70;64.00
66086;DHT22;52868;49.758;9.586;2022-08-19T02:33:54;23.70;64.00
66086;DHT22;52868;49.758;9.586;2022-08-19T02:36:21;23.70;64.00
66086;DHT22;52868;49.758;9.586;2022-08-19T02:38:47;23.70;64.00
66086;DHT22;52868;49.758;9.586;2022-08-19T02:41:19;23.70;64.00
66086;DHT22;52868;49.758;9.586;2022-08-19T02:43:46;23.70;64.00
66086;DHT22;52868;49.758;9.586;2022-08-19T02:48:52;23.70;64.00
66086;DHT22;52868;49.758;9.586;2022-08-19T02:51:24;23.70;64.00
66086;DHT22;52868;49.758;9.586;2022-08-19T02:53:50;23.70;63.90
66086;DHT22;52868;49.758;9.586;2022-08-19T02:56:16;23.70;63.90
66086;DHT22;52868;49.758;9.586;2022-08-19T02:58:43;23.70;63.90
66086;DHT22;52868;49.758;9.586;2022-08-19T03:01:09;23.70;63.80
66086;DHT22;52868;49.758;9.586;2022-08-19T03:03:36;23.70;63.90
66086;DHT22;52868;49.758;9.586;2022-08-19T03:06:13;23.60;63.90
66086;DHT22;52868;49.758;9.586;2022-08-19T03:08:41;23.60;64.00
66086;DHT22;52868;49.758;9.586;2022-08-19T03:11:13;23.60;64.00
66086;DHT22;52868;49.758;9.586;2022-08-19T03:13:39;23.60;64.00
66086;DHT22;52868;49.758;9.586;2022-08-19T03:16:05;23.60;64.00
66086;DHT22;52868;49.758;9.586;2022-08-19T03:18:31;23.60;64.00
66086;DHT22;52868;49.758;9.586;2022-08-19T03:20:57;23.60;64.00
66086;DHT22;52868;49.758;9.586;2022-08-19T03:23:23;23.60;64.00
66086;DHT22;52868;49.758;9.586;2022-08-19T03:25:50;23.60;64.00
66086;DHT22;52868;49.758;9.586;2022-08-19T03:28:17;23.50;64.00
66086;DHT22;52868;49.758;9.586;2022-08-19T03:30:58;23.60;64.00
66086;DHT22;52868;49.758;9.586;2022-08-19T03:33:25;23.50;64.00
66086;DHT22;52868;49.758;9.586;2022-08-19T03:36:10;23.60;64.10
66086;DHT22;52868;49.758;9.586;2022-08-19T03:38:41;23.50;64.10
66086;DHT22;52868;49.758;9.586;2022-08-19T03:41:10;23.50;64.00
66086;DHT22;52868;49.758;9.586;2022-08-19T03:43:38;23.50;64.00
66086;DHT22;52868;49.758;9.586;2022-08-19T03:46:10;23.50;64.00
66086;DHT22;52868;49.758;9.586;2022-08-19T03:48:37;23.50;64.10
66086;DHT22;52868;49.758;9.586;2022-08-19T03:51:04;23.50;64.20
66086;DHT22;52868;49.758;9.586;2022-08-19T03:53:32;23.50;64.20
66086;DHT22;52868;49.758;9.586;2022-08-19T03:55:58;23.50;64.10
66086;DHT22;52868;49.758;9.586;2022-08-19T03:58:28;23.50;64.10
66086;DHT22;52868;49.758;9.586;2022-08-19T04:00:57;23.50;64.20
66086;DHT22;52868;49.758;9.586;2022-08-19T04:03:24;23.50;64.30
66086;DHT22;52868;49.758;9.586;2022-08-19T04:05:50;23.50;64.30
66086;DHT22;52868;49.758;9.586;2022-08-19T04:08:16;23.50;64.20
66086;DHT22;52868;49.758;9.586;2022-08-19T04:10:46;23.50;64.20
66086;DHT22;52868;49.758;9.586;2022-08-19T04:13:13;23.50;64.20
66086;DHT22;52868;49.758;9.586;2022-08-19T04:15:41;23.50;64.10
66086;DHT22;52868;49.758;9.586;2022-08-19T04:18:10;23.50;64.10
66086;DHT22;52868;49.758;9.586;2022-08-19T04:20:41;23.50;64.10
66086;DHT22;52868;49.758;9.586;2022-08-19T04:23:06;23.50;64.10
66086;DHT22;52868;49.758;9.586;2022-08-19T04:25:37;23.60;64.10
66086;DHT22;52868;49.758;9.586;2022-08-19T04:28:03;23.60;64.10
66086;DHT22;52868;49.758;9.586;2022-08-19T04:30:29;23.50;64.20
66086;DHT22;52868;49.758;9.586;2022-08-19T04:32:54;23.50;64.20
66086;DHT22;52868;49.758;9.586;2022-08-19T04:35:20;23.60;64.30
66086;DHT22;52868;49.758;9.586;2022-08-19T04:37:45;23.60;64.30
66086;DHT22;52868;49.758;9.586;2022-08-19T04:40:11;23.50;64.40
66086;DHT22;52868;49.758;9.586;2022-08-19T04:42:55;23.50;64.40
66086;DHT22;52868;49.758;9.586;2022-08-19T04:45:22;23.60;64.30
66086;DHT22;52868;49.758;9.586;2022-08-19T04:47:47;23.50;64.40
66086;DHT22;52868;49.758;9.586;2022-08-19T04:50:13;23.60;64.50
66086;DHT22;52868;49.758;9.586;2022-08-19T04:52:39;23.60;64.50
66086;DHT22;52868;49.758;9.586;2022-08-19T04:55:09;23.60;64.60
66086;DHT22;52868;49.758;9.586;2022-08-19T04:57:36;23.50;64.60
66086;DHT22;52868;49.758;9.586;2022-08-19T05:00:05;23.50;64.60
66086;DHT22;52868;49.758;9.586;2022-08-19T05:02:31;23.60;64.60
66086;DHT22;52868;49.758;9.586;2022-08-19T05:04:58;23.60;64.60
66086;DHT22;52868;49.758;9.586;2022-08-19T05:07:27;23.60;64.60
66086;DHT22;52868;49.758;9.586;2022-08-19T05:09:52;23.60;64.60
66086;DHT22;52868;49.758;9.586;2022-08-19T05:12:18;23.60;64.60
66086;DHT22;52868;49.758;9.586;2022-08-19T05:14:45;23.60;64.70
66086;DHT22;52868;49.758;9.586;2022-08-19T05:17:13;23.60;64.80
66086;DHT22;52868;49.758;9.586;2022-08-19T05:19:38;23.60;64.70
66086;DHT22;52868;49.758;9.586;2022-08-19T05:22:22;23.60;64.70
66086;DHT22;52868;49.758;9.586;2022-08-19T05:25:02;23.60;64.80
66086;DHT22;52868;49.758;9.586;2022-08-19T05:27:28;23.60;64.70
66086;DHT22;52868;49.758;9.586;2022-08-19T05:29:54;23.70;64.80
66086;DHT22;52868;49.758;9.586;2022-08-19T05:32:19;23.60;64.70
66086;DHT22;52868;49.758;9.586;2022-08-19T05:34:47;23.70;64.70
66086;DHT22;52868;49.758;9.586;2022-08-19T05:37:12;23.70;64.80
66086;DHT22;52868;49.758;9.586;2022-08-19T05:39:38;23.70;64.80
66086;DHT22;52868;49.758;9.586;2022-08-19T05:42:08;23.60;64.80
66086;DHT22;52868;49.758;9.586;2022-08-19T05:44:37;23.60;64.80
66086;DHT22;52868;49.758;9.586;2022-08-19T05:47:05;23.70;64.80
66086;DHT22;52868;49.758;9.586;2022-08-19T05:49:32;23.70;64.80
66086;DHT22;52868;49.758;9.586;2022-08-19T05:51:58;23.70;64.80
66086;DHT22;52868;49.758;9.586;2022-08-19T05:54:25;23.70;64.80
66086;DHT22;52868;49.758;9.586;2022-08-19T05:56:52;23.70;64.80
66086;DHT22;52868;49.758;9.586;2022-08-19T05:59:19;23.70;64.80
66086;DHT22;52868;49.758;9.586;2022-08-19T06:01:47;23.70;64.80
66086;DHT22;52868;49.758;9.586;2022-08-19T06:04:16;23.80;64.80
66086;DHT22;52868;49.758;9.586;2022-08-19T06:06:43;23.80;64.80
66086;DHT22;52868;49.758;9.586;2022-08-19T06:09:09;23.80;64.70
66086;DHT22;52868;49.758;9.586;2022-08-19T06:11:51;23.80;64.80
66086;DHT22;52868;49.758;9.586;2022-08-19T06:14:24;23.80;64.80
66086;DHT22;52868;49.758;9.586;2022-08-19T06:16:51;23.80;64.80
66086;DHT22;52868;49.758;9.586;2022-08-19T06:19:20;23.80;64.80
66086;DHT22;52868;49.758;9.586;2022-08-19T06:21:48;23.80;64.80
66086;DHT22;52868;49.758;9.586;2022-08-19T06:24:17;23.80;64.70
66086;DHT22;52868;49.758;9.586;2022-08-19T06:26:45;23.90;64.80
66086;DHT22;52868;49.758;9.586;2022-08-19T06:29:13;23.90;64.70
66086;DHT22;52868;49.758;9.586;2022-08-19T06:31:44;23.90;64.80
66086;DHT22;52868;49.758;9.586;2022-08-19T06:34:11;23.80;64.80
66086;DHT22;52868;49.758;9.586;2022-08-19T06:36:40;23.90;64.80
66086;DHT22;52868;49.758;9.586;2022-08-19T06:39:17;23.90;64.90
66086;DHT22;52868;49.758;9.586;2022-08-19T06:41:47;24.00;64.90
66086;DHT22;52868;49.758;9.586;2022-08-19T06:44:14;23.90;64.90
66086;DHT22;52868;49.758;9.586;2022-08-19T06:46:41;24.00;64.90
66086;DHT22;52868;49.758;9.586;2022-08-19T06:49:08;24.00;64.90
66086;DHT22;52868;49.758;9.586;2022-08-19T06:51:44;24.00;65.00
66086;DHT22;52868;49.758;9.586;2022-08-19T06:54:10;24.00;65.00
66086;DHT22;52868;49.758;9.586;2022-08-19T06:56:36;24.00;65.10
66086;DHT22;52868;49.758;9.586;2022-08-19T06:59:12;24.00;65.00
66086;DHT22;52868;49.758;9.586;2022-08-19T07:01:41;24.00;65.20
66086;DHT22;52868;49.758;9.586;2022-08-19T07:04:07;24.00;65.20
66086;DHT22;52868;49.758;9.586;2022-08-19T07:06:34;24.00;65.30
66086;DHT22;52868;49.758;9.586;2022-08-19T07:09:00;24.10;65.00
66086;DHT22;52868;49.758;9.586;2022-08-19T07:11:26;24.10;65.10
66086;DHT22;52868;49.758;9.586;2022-08-19T07:13:52;24.10;65.10
66086;DHT22;52868;49.758;9.586;2022-08-19T07:16:19;24.10;65.10
66086;DHT22;52868;49.758;9.586;2022-08-19T07:18:46;24.10;65.10
66086;DHT22;52868;49.758;9.586;2022-08-19T07:21:19;24.10;65.20
66086;DHT22;52868;49.758;9.586;2022-08-19T07:23:47;24.10;65.20
66086;DHT22;52868;49.758;9.586;2022-08-19T07:26:16;24.10;65.30
66086;DHT22;52868;49.758;9.586;2022-08-19T07:28:42;24.20;65.30
66086;DHT22;52868;49.758;9.586;2022-08-19T07:31:12;24.20;65.30
66086;DHT22;52868;49.758;9.586;2022-08-19T07:33:39;24.20;65.20
66086;DHT22;52868;49.758;9.586;2022-08-19T07:36:07;24.20;65.30
66086;DHT22;52868;49.758;9.586;2022-08-19T07:38:37;24.20;65.40
66086;DHT22;52868;49.758;9.586;2022-08-19T07:41:03;24.20;65.40
66086;DHT22;52868;49.758;9.586;2022-08-19T07:43:29;24.30;65.40
66086;DHT22;52868;49.758;9.586;2022-08-19T07:45:55;24.30;65.40
66086;DHT22;52868;49.758;9.586;2022-08-19T07:48:25;24.30;65.40
66086;DHT22;52868;49.758;9.586;2022-08-19T07:50:57;24.30;65.50
66086;DHT22;52868;49.758;9.586;2022-08-19T07:53:23;24.30;65.40
66086;DHT22;52868;49.758;9.586;2022-08-19T07:55:50;24.30;65.30
66086;DHT22;52868;49.758;9.586;2022-08-19T07:58:18;24.40;65.30
66086;DHT22;52868;49.758;9.586;2022-08-19T08:00:46;24.40;65.30
66086;DHT22;52868;49.758;9.586;2022-08-19T08:03:13;24.40;65.30
66086;DHT22;52868;49.758;9.586;2022-08-19T08:05:39;24.40;65.20
66086;DHT22;52868;49.758;9.586;2022-08-19T08:08:28;24.50;65.20
66086;DHT22;52868;49.758;9.586;2022-08-19T08:10:57;24.50;65.20
66086;DHT22;52868;49.758;9.586;2022-08-19T08:13:23;24.60;65.20
66086;DHT22;52868;49.758;9.586;2022-08-19T08:15:49;24.60;65.10
66086;DHT22;52868;49.758;9.586;2022-08-19T08:18:15;24.60;65.00
66086;DHT22;52868;49.758;9.586;2022-08-19T08:20:40;24.70;64.90
66086;DHT22;52868;49.758;9.586;2022-08-19T08:23:06;24.70;64.80
66086;DHT22;52868;49.758;9.586;2022-08-19T08:25:56;24.70;64.80
66086;DHT22;52868;49.758;9.586;2022-08-19T08:28:22;24.70;64.90
66086;DHT22;52868;49.758;9.586;2022-08-19T08:30:49;24.70;64.80
66086;DHT22;52868;49.758;9.586;2022-08-19T08:33:23;24.70;64.70
66086;DHT22;52868;49.758;9.586;2022-08-19T08:35:49;24.70;64.60
66086;DHT22;52868;49.758;9.586;2022-08-19T08:38:15;24.70;64.60
66086;DHT22;52868;49.758;9.586;2022-08-19T08:40:52;24.70;64.50
66086;DHT22;52868;49.758;9.586;2022-08-19T08:43:29;24.70;64.50
66086;DHT22;52868;49.758;9.586;2022-08-19T08:46:06;24.70;64.40
66086;DHT22;52868;49.758;9.586;2022-08-19T08:51:11;24.70;64.30
66086;DHT22;52868;49.758;9.586;2022-08-19T08:53:41;24.80;64.20
66086;DHT22;52868;49.758;9.586;2022-08-19T08:56:08;24.80;64.10
66086;DHT22;52868;49.758;9.586;2022-08-19T09:01:21;24.80;63.90
66086;DHT22;52868;49.758;9.586;2022-08-19T09:03:47;24.80;63.80
66086;DHT22;52868;49.758;9.586;2022-08-19T09:09:34;24.80;63.50
66086;DHT22;52868;49.758;9.586;2022-08-19T09:12:28;24.80;63.30
66086;DHT22;52868;49.758;9.586;2022-08-19T09:15:11;24.80;63.00
66086;DHT22;52868;49.758;9.586;2022-08-19T09:17:37;24.90;62.90
66086;DHT22;52868;49.758;9.586;2022-08-19T09:22:35;24.90;62.90
66086;DHT22;52868;49.758;9.586;2022-08-19T09:25:01;24.90;62.80
66086;DHT22;52868;49.758;9.586;2022-08-19T09:27:27;25.00;62.70
66086;DHT22;52868;49.758;9.586;2022-08-19T09:29:53;25.00;62.70
66086;DHT22;52868;49.758;9.586;2022-08-19T09:32:20;25.00;62.60
66086;DHT22;52868;49.758;9.586;2022-08-19T09:34:46;25.00;62.50
66086;DHT22;52868;49.758;9.586;2022-08-19T09:37:12;25.00;62.40
66086;DHT22;52868;49.758;9.586;2022-08-19T09:39:39;25.00;62.30
66086;DHT22;52868;49.758;9.586;2022-08-19T09:42:06;25.00;62.20
66086;DHT22;52868;49.758;9.586;2022-08-19T09:44:38;25.00;62.10
66086;DHT22;52868;49.758;9.586;2022-08-19T09:47:03;25.00;62.00
66086;DHT22;52868;49.758;9.586;2022-08-19T09:49:30;24.90;61.90
66086;DHT22;52868;49.758;9.586;2022-08-19T09:51:57;25.00;61.80
66086;DHT22;52868;49.758;9.586;2022-08-19T09:54:23;24.90;61.70
66086;DHT22;52868;49.758;9.586;2022-08-19T09:56:49;24.90;61.60
66086;DHT22;52868;49.758;9.586;2022-08-19T09:59:14;24.90;61.70
66086;DHT22;52868;49.758;9.586;2022-08-19T10:01:40;24.90;61.70
66086;DHT22;52868;49.758;9.586;2022-08-19T10:04:06;24.90;61.90
66086;DHT22;52868;49.758;9.586;2022-08-19T10:06:37;25.00;62.10
66086;DHT22;52868;49.758;9.586;2022-08-19T10:09:04;24.90;62.30
66086;DHT22;52868;49.758;9.586;2022-08-19T10:11:32;25.00;62.40
66086;DHT22;52868;49.758;9.586;2022-08-19T10:13:58;25.00;62.50
66086;DHT22;52868;49.758;9.586;2022-08-19T10:16:24;25.00;62.70
66086;DHT22;52868;49.758;9.586;2022-08-19T10:18:51;25.00;62.70
66086;DHT22;52868;49.758;9.586;2022-08-19T10:21:30;25.00;62.80
66086;DHT22;52868;49.758;9.586;2022-08-19T10:23:58;25.10;62.60
66086;DHT22;52868;49.758;9.586;2022-08-19T10:26:30;25.10;62.60
66086;DHT22;52868;49.758;9.586;2022-08-19T10:28:57;25.10;62.60
66086;DHT22;52868;49.758;9.586;2022-08-19T10:31:25;25.10;62.60
66086;DHT22;52868;49.758;9.586;2022-08-19T10:33:52;25.10;62.50
66086;DHT22;52868;49.758;9.586;2022-08-19T10:36:25;25.20;62.40
66086;DHT22;52868;49.758;9.586;2022-08-19T10:38:53;25.20;62.20
66086;DHT22;52868;49.758;9.586;2022-08-19T10:41:22;25.10;61.70
66086;DHT22;52868;49.758;9.586;2022-08-19T10:43:51;25.10;61.50
66086;DHT22;52868;49.758;9.586;2022-08-19T10:46:18;25.10;61.40
66086;DHT22;52868;49.758;9.586;2022-08-19T10:48:44;25.10;61.30
66086;DHT22;52868;49.758;9.586;2022-08-19T10:51:11;25.10;61.20
66086;DHT22;52868;49.758;9.586;2022-08-19T10:53:56;25.20;61.10
66086;DHT22;52868;49.758;9.586;2022-08-19T10:56:22;25.20;61.00
66086;DHT22;52868;49.758;9.586;2022-08-19T10:59:07;25.20;61.00
66086;DHT22;52868;49.758;9.586;2022-08-19T11:01:34;25.20;60.90
66086;DHT22;52868;49.758;9.586;2022-08-19T11:04:01;25.20;60.80
66086;DHT22;52868;49.758;9.586;2022-08-19T11:06:27;25.20;60.70
66086;DHT22;52868;49.758;9.586;2022-08-19T11:08:53;25.30;60.50
66086;DHT22;52868;49.758;9.586;2022-08-19T11:11:20;25.30;60.40
66086;DHT22;52868;49.758;9.586;2022-08-19T11:13:47;25.30;60.40
66086;DHT22;52868;49.758;9.586;2022-08-19T11:16:18;25.30;60.30
66086;DHT22;52868;49.758;9.586;2022-08-19T11:18:47;25.30;60.00
66086;DHT22;52868;49.758;9.586;2022-08-19T11:21:27;25.30;59.80
66086;DHT22;52868;49.758;9.586;2022-08-19T11:23:55;25.40;59.40
66086;DHT22;52868;49.758;9.586;2022-08-19T11:26:22;25.40;59.50
66086;DHT22;52868;49.758;9.586;2022-08-19T11:28:49;25.40;59.40
66086;DHT22;52868;49.758;9.586;2022-08-19T11:31:19;25.50;59.30
66086;DHT22;52868;49.758;9.586;2022-08-19T11:33:45;25.50;59.10
66086;DHT22;52868;49.758;9.586;2022-08-19T11:36:12;25.50;58.90
66086;DHT22;52868;49.758;9.586;2022-08-19T11:38:38;25.60;58.80
66086;DHT22;52868;49.758;9.586;2022-08-19T11:41:06;25.70;58.60
66086;DHT22;52868;49.758;9.586;2022-08-19T11:43:35;25.70;58.50
66086;DHT22;52868;49.758;9.586;2022-08-19T11:46:06;25.80;58.50
66086;DHT22;52868;49.758;9.586;2022-08-19T11:48:32;25.80;58.30
66086;DHT22;52868;49.758;9.586;2022-08-19T11:50:58;25.80;58.30
66086;DHT22;52868;49.758;9.586;2022-08-19T11:53:24;25.80;58.30
66086;DHT22;52868;49.758;9.586;2022-08-19T11:55:52;25.80;58.10
66086;DHT22;52868;49.758;9.586;2022-08-19T11:58:21;25.80;57.90
66086;DHT22;52868;49.758;9.586;2022-08-19T12:00:47;25.90;57.60
66086;DHT22;52868;49.758;9.586;2022-08-19T12:03:13;25.80;57.60
66086;DHT22;52868;49.758;9.586;2022-08-19T12:05:40;25.90;57.70
66086;DHT22;52868;49.758;9.586;2022-08-19T12:08:06;25.80;57.60
66086;DHT22;52868;49.758;9.586;2022-08-19T12:10:33;25.90;57.60
66086;DHT22;52868;49.758;9.586;2022-08-19T12:12:59;25.90;57.70
66086;DHT22;52868;49.758;9.586;2022-08-19T12:15:25;25.90;57.70
66086;DHT22;52868;49.758;9.586;2022-08-19T12:17:55;25.90;57.50
66086;DHT22;52868;49.758;9.586;2022-08-19T12:20:23;25.90;57.40
66086;DHT22;52868;49.758;9.586;2022-08-19T12:22:49;25.90;57.50
66086;DHT22;52868;49.758;9.586;2022-08-19T12:25:15;25.90;57.60
66086;DHT22;52868;49.758;9.586;2022-08-19T12:27:41;25.90;57.70
66086;DHT22;52868;49.758;9.586;2022-08-19T12:30:08;26.00;57.60
66086;DHT22;52868;49.758;9.586;2022-08-19T12:32:35;25.90;57.60
66086;DHT22;52868;49.758;9.586;2022-08-19T12:35:01;26.00;57.60
66086;DHT22;52868;49.758;9.586;2022-08-19T12:37:26;25.90;57.40
66086;DHT22;52868;49.758;9.586;2022-08-19T12:39:52;25.90;57.40
66086;DHT22;52868;49.758;9.586;2022-08-19T12:42:18;26.00;57.30
66086;DHT22;52868;49.758;9.586;2022-08-19T12:44:44;26.00;57.20
66086;DHT22;52868;49.758;9.586;2022-08-19T12:47:11;26.00;57.10
66086;DHT22;52868;49.758;9.586;2022-08-19T12:49:38;26.00;57.10
66086;DHT22;52868;49.758;9.586;2022-08-19T12:52:05;26.00;57.00
66086;DHT22;52868;49.758;9.586;2022-08-19T12:54:31;26.10;56.90
66086;DHT22;52868;49.758;9.586;2022-08-19T12:56:58;26.10;56.70
66086;DHT22;52868;49.758;9.586;2022-08-19T12:59:25;26.10;56.70
66086;DHT22;52868;49.758;9.586;2022-08-19T13:01:50;26.10;56.80
66086;DHT22;52868;49.758;9.586;2022-08-19T13:04:16;26.10;56.80
66086;DHT22;52868;49.758;9.586;2022-08-19T13:06:42;26.10;56.60
66086;DHT22;52868;49.758;9.586;2022-08-19T13:09:08;26.20;56.60
66086;DHT22;52868;49.758;9.586;2022-08-19T13:11:33;26.20;56.60
66086;DHT22;52868;49.758;9.586;2022-08-19T13:14:00;26.20;56.50
66086;DHT22;52868;49.758;9.586;2022-08-19T13:16:26;26.20;56.50
66086;DHT22;52868;49.758;9.586;2022-08-19T13:18:54;26.30;56.40
66086;DHT22;52868;49.758;9.586;2022-08-19T13:21:23;26.30;56.40
66086;DHT22;52868;49.758;9.586;2022-08-19T13:23:49;26.30;56.40
66086;DHT22;52868;49.758;9.586;2022-08-19T13:26:16;26.30;56.40
66086;DHT22;52868;49.758;9.586;2022-08-19T13:28:42;26.30;56.40
66086;DHT22;52868;49.758;9.586;2022-08-19T13:31:33;26.30;56.40
66086;DHT22;52868;49.758;9.586;2022-08-19T13:34:19;26.40;56.00
66086;DHT22;52868;49.758;9.586;2022-08-19T13:36:52;26.50;55.90
66086;DHT22;52868;49.758;9.586;2022-08-19T13:39:18;26.40;55.80
66086;DHT22;52868;49.758;9.586;2022-08-19T13:41:45;26.40;55.80
66086;DHT22;52868;49.758;9.586;2022-08-19T13:44:16;26.50;55.60
66086;DHT22;52868;49.758;9.586;2022-08-19T13:46:46;26.50;55.30
66086;DHT22;52868;49.758;9.586;2022-08-19T13:49:14;26.50;55.30
66086;DHT22;52868;49.758;9.586;2022-08-19T13:51:41;26.50;55.20
66086;DHT22;52868;49.758;9.586;2022-08-19T13:54:08;26.50;55.20
66086;DHT22;52868;49.758;9.586;2022-08-19T13:56:34;26.50;55.00
66086;DHT22;52868;49.758;9.586;2022-08-19T13:59:00;26.60;54.90
66086;DHT22;52868;49.758;9.586;2022-08-19T14:01:27;26.60;54.80
66086;DHT22;52868;49.758;9.586;2022-08-19T14:03:53;26.70;54.70
66086;DHT22;52868;49.758;9.586;2022-08-19T14:06:19;26.70;54.80
66086;DHT22;52868;49.758;9.586;2022-08-19T14:08:45;26.70;54.60
66086;DHT22;52868;49.758;9.586;2022-08-19T14:11:11;26.80;54.60
66086;DHT22;52868;49.758;9.586;2022-08-19T14:13:37;26.70;54.40
66086;DHT22;52868;49.758;9.586;2022-08-19T14:16:10;26.80;54.30
66086;DHT22;52868;49.758;9.586;2022-08-19T14:18:36;26.70;54.40
66086;DHT22;52868;49.758;9.586;2022-08-19T14:21:03;26.70;54.40
66086;DHT22;52868;49.758;9.586;2022-08-19T14:23:30;26.70;54.40
66086;DHT22;52868;49.758;9.586;2022-08-19T14:26:05;26.70;54.30
66086;DHT22;52868;49.758;9.586;2022-08-19T14:28:30;26.70;54.30
66086;DHT22;52868;49.758;9.586;2022-08-19T14:30:56;26.60;54.40
66086;DHT22;52868;49.758;9.586;2022-08-19T14:33:22;26.60;54.40
66086;DHT22;52868;49.758;9.586;2022-08-19T14:35:47;26.50;54.40
66086;DHT22;52868;49.758;9.586;2022-08-19T14:38:18;26.60;54.40
66086;DHT22;52868;49.758;9.586;2022-08-19T14:40:44;26.60;54.40
66086;DHT22;52868;49.758;9.586;2022-08-19T14:43:11;26.60;54.30
66086;DHT22;52868;49.758;9.586;2022-08-19T14:45:38;26.50;54.40
66086;DHT22;52868;49.758;9.586;2022-08-19T14:48:04;26.50;54.40
66086;DHT22;52868;49.758;9.586;2022-08-19T14:50:31;26.50;54.30
66086;DHT22;52868;49.758;9.586;2022-08-19T14:53:02;26.60;54.40
66086;DHT22;52868;49.758;9.586;2022-08-19T14:55:29;26.60;54.20
66086;DHT22;52868;49.758;9.586;2022-08-19T14:57:56;26.60;54.30
66086;DHT22;52868;49.758;9.586;2022-08-19T15:00:22;26.60;54.30
66086;DHT22;52868;49.758;9.586;2022-08-19T15:02:49;26.50;54.30
66086;DHT22;52868;49.758;9.586;2022-08-19T15:05:15;26.50;54.30
66086;DHT22;52868;49.758;9.586;2022-08-19T15:07:42;26.50;54.40
66086;DHT22;52868;49.758;9.586;2022-08-19T15:10:09;26.50;54.30
66086;DHT22;52868;49.758;9.586;2022-08-19T15:12:36;26.50;54.30
66086;DHT22;52868;49.758;9.586;2022-08-19T15:15:04;26.40;54.20
66086;DHT22;52868;49.758;9.586;2022-08-19T15:17:30;26.40;54.20
66086;DHT22;52868;49.758;9.586;2022-08-19T15:19:55;26.50;54.20
66086;DHT22;52868;49.758;9.586;2022-08-19T15:22:21;26.40;54.20
66086;DHT22;52868;49.758;9.586;2022-08-19T15:24:47;26.40;54.20
66086;DHT22;52868;49.758;9.586;2022-08-19T15:27:13;26.40;54.30
66086;DHT22;52868;49.758;9.586;2022-08-19T15:29:39;26.40;54.40
66086;DHT22;52868;49.758;9.586;2022-08-19T15:32:06;26.40;54.20
66086;DHT22;52868;49.758;9.586;2022-08-19T15:34:33;26.40;54.20
66086;DHT22;52868;49.758;9.586;2022-08-19T15:36:59;26.40;54.30
66086;DHT22;52868;49.758;9.586;2022-08-19T15:39:25;26.40;54.30
66086;DHT22;52868;49.758;9.586;2022-08-19T15:41:51;26.40;54.30
66086;DHT22;52868;49.758;9.586;2022-08-19T15:44:18;26.40;54.30
66086;DHT22;52868;49.758;9.586;2022-08-19T15:46:45;26.40;54.40
66086;DHT22;52868;49.758;9.586;2022-08-19T15:49:14;26.40;54.30